Latest Coastal Weather Observations for Adelaide Airport

IDS60701

Issued at 11:01 pm CST Thursday 18 July 2024 (issued every 10 minutes, with the page automatically refreshed every 10 minutes)

About coastal observations | Map of coastal stations | Coastal observations for SA | Marine services | Other Formats
Station Details ID: 023034 Name: ADELAIDE AIRPORT Lat: -34.95 Lon: 138.52 Height: 2.0 m
Data from the previous 72 hours. | See also: Recent months at Adelaide Airport
Date/Time
CST
Wind Sea
Height
m
Swell Vis
km
Cloud Weather Temp
°C
Press
MSL
hPa
Rain since
9am
mm
Dir  Spd
kts
Gust
kts
Height
m
Period
s
Dir
18/10:30pm NNE 11 16 - - - - 10 - - 10.0 1015.6 0.0
18/10:00pm NNE 13 17 - - - - 10 - - 10.2 1016.4 0.0
18/09:30pm NNE 12 17 - - - - 10 - - 10.6 1016.7 0.0
18/09:00pm NNE 10 13 - - - - 40 Cloudy Fine 10.6 1016.8 0.0
18/08:30pm NNE 9 12 - - - - 10 - - 10.5 1017.7 0.0
18/08:00pm NNE 9 11 - - - - 10 Mostly clear - 10.9 1017.9 0.0
18/07:30pm N 9 13 - - - - 10 Mostly clear - 11.5 1018.1 0.0
18/07:00pm N 8 10 - - - - 10 Mostly clear - 11.7 1017.7 0.0
18/06:30pm N 8 11 - - - - 10 Mostly clear - 11.7 1017.5 0.0
18/06:00pm NNW 10 14 - - - - 40 Mostly cloudy Fine 12.0 1017.8 0.0
18/05:30pm NNW 9 11 - - - - 10 Partly cloudy - 12.0 1018.2 0.0
18/05:00pm N 7 10 - - - - 10 Partly cloudy - 12.5 1018.3 0.0
18/04:30pm NNE 9 12 - - - - 10 Mostly clear - 12.3 1018.0 0.0
18/04:00pm NNW 10 13 - - - - 10 Mostly cloudy - 12.7 1018.6 0.0
18/03:30pm N 8 10 - - - - 10 Partly cloudy - 12.9 1018.6 0.0
18/03:00pm N 8 11 - - - - 40 Mostly cloudy Fine 13.2 1018.4 0.0
18/02:30pm NNE 6 9 - - - - 10 Mostly clear - 12.7 1018.0 0.0
18/02:00pm NNW 6 8 - - - - 10 Mostly clear - 12.4 1018.7 0.0
18/01:30pm NW 6 8 - - - - 10 Mostly clear - 12.2 1019.4 0.0
18/01:00pm S 3 6 - - - - 10 Mostly clear - 12.6 1019.6 0.0
18/12:30pm WNW 6 9 - - - - 10 Partly cloudy - 13.4 1020.2 0.0
18/12:00pm NW 9 13 - - - - 40 Mostly cloudy Fine 12.6 1021.0 0.0
18/11:30am W 4 9 - - - - 10 Mostly cloudy - 12.3 1021.8 0.0
18/11:00am WSW 6 8 - - - - 10 Mostly cloudy - 12.2 1022.4 0.0
18/10:30am WSW 9 12 - - - - 10 Mostly cloudy - 12.0 1022.6 0.0
18/10:00am WSW 7 9 - - - - 10 Mostly cloudy - 11.8 1022.4 0.0
18/09:30am N 5 8 - - - - 10 Mostly cloudy - 11.6 1022.1 0.0
18/09:00am N 4 5 - - - - 40 Mostly cloudy Fine 10.9 1021.8 2.4
18/08:30am CALM 0 0 - - - - 10 Mostly cloudy - 10.1 1021.8 2.4
18/08:00am CALM 0 0 - - - - 10 Mostly cloudy - 9.9 1022.0 2.4
18/07:30am ESE 1 4 - - - - 10 Mostly cloudy - 9.6 1021.9 2.4
18/07:00am SE 3 5 - - - - 10 Mostly cloudy - 9.7 1022.0 2.4
18/06:30am CALM 0 0 - - - - 10 Cloudy - 9.8 1021.9 2.4
18/06:00am CALM 0 3 - - - - 30 Cloudy Fine 9.0 1021.8 2.4
18/05:30am CALM 0 0 - - - - 10 Cloudy - 9.1 1021.5 2.4
18/05:00am CALM 0 3 - - - - 10 Cloudy - 8.6 1021.5 2.4
18/04:30am NE 2 4 - - - - 10 Mostly cloudy - 8.0 1021.5 2.4
18/04:00am ENE 3 5 - - - - 10 Mostly cloudy - 7.6 1021.7 2.4
18/03:30am ENE 3 4 - - - - 10 Mostly clear - 7.3 1021.8 2.4
18/03:00am ENE 3 4 - - - - 25 Mostly cloudy Recent fog 6.8 1021.7 2.4
18/02:48am E 2 4 - - - - 10 Mostly cloudy - 6.5 1021.7 2.4
18/02:30am E 3 4 - - - - 10 Mostly clear - 5.8 1021.8 2.4
18/02:15am CALM 0 0 - - - - 0.8 Mostly clear Fog 5.6 1021.6 2.4
18/02:00am CALM 0 0 - - - - 10 Mostly clear Fog 5.5 1021.6 2.4
18/01:30am CALM 0 0 - - - - 10 Mostly clear - 5.9 1021.2 2.4
18/01:14am CALM 0 0 - - - - 10 Mostly clear Fog 6.2 1021.0 2.4
18/01:00am CALM 0 0 - - - - 10 Mostly clear Fog patches 7.5 1021.2 2.4
18/12:30am SE 3 5 - - - - 10 Mostly clear - 7.9 1021.3 2.4
18/12:00am SE 5 6 - - - - 30 Mostly clear Fine 8.6 1021.4 2.4
 
Date/Time
CST
Wind Sea
Height
m
Swell Vis
km
Cloud Weather Temp
°C
Press
MSL
hPa
Rain since
9am
mm
Dir  Spd
kts
Gust
kts
Height
m
Period
s
Dir
17/11:30pm SSE 7 9 - - - - 10 Mostly clear - 10.0 1021.7 2.4
17/11:00pm S 11 16 - - - - 10 Mostly clear - 10.4 1021.9 2.4
17/10:30pm SSW 7 8 - - - - 10 Mostly clear - 11.2 1022.1 2.4
17/10:00pm SSW 7 8 - - - - 10 Mostly clear - 11.0 1022.2 2.4
17/09:30pm SSW 12 18 - - - - 10 Mostly clear - 11.0 1021.8 2.4
17/09:00pm S 7 8 - - - - 20 Mostly cloudy Distant precip. 11.3 1021.7 2.4
17/08:30pm SSW 7 8 - - - - 10 Mostly clear - 11.1 1021.5 2.4
17/08:00pm S 7 9 - - - - 10 Mostly clear - 11.0 1021.4 2.4
17/07:30pm S 7 8 - - - - 10 Mostly clear - 10.4 1021.0 2.4
17/07:00pm SSW 7 10 - - - - 10 Mostly clear - 10.9 1020.6 2.4
17/06:30pm SSW 6 8 - - - - 10 Mostly clear - 11.0 1020.3 2.4
17/06:00pm SSW 6 8 - - - - 30 Mostly cloudy Recent precip. 11.4 1019.8 2.4
17/05:30pm SSW 11 16 - - - - 10 Mostly clear - 11.4 1019.2 2.4
17/05:26pm SSW 11 16 - - - - 6 Partly cloudy Showers 11.6 1019.2 2.2
17/05:16pm SSW 9 14 - - - - 3 Mostly clear Showers 12.1 1019.0 2.2
17/05:00pm S 13 17 - - - - 10 Mostly clear Showers 12.0 1018.8 2.2
17/04:30pm SSW 14 20 - - - - 10 Mostly clear - 12.1 1018.2 2.2
17/04:00pm SSW 14 19 - - - - 10 Mostly clear - 12.6 1017.8 2.2
17/03:30pm SSW 10 17 - - - - 10 Mostly clear - 12.8 1017.6 2.2
17/03:00pm SSW 14 22 - - - - 25 Mostly cloudy Recent precip. 12.1 1017.4 2.2
17/02:50pm SSW 15 20 - - - - 4 Mostly clear Showers 13.0 1017.3 1.8
17/02:30pm SW 16 20 - - - - 10 Mostly clear - 13.0 1017.3 1.8
17/02:00pm SSW 14 19 - - - - 10 Mostly clear - 12.6 1017.2 1.8
17/01:30pm SW 14 19 - - - - 10 Mostly clear - 12.7 1017.3 1.8
17/01:00pm SW 16 19 - - - - 7 Mostly clear Showers 12.8 1017.4 1.8
17/12:30pm SW 13 17 - - - - 10 Mostly clear - 12.1 1018.0 1.8
17/12:00pm SSW 11 14 - - - - 20 Mostly cloudy Recent precip. 12.4 1018.4 1.8
17/11:30am SSW 14 20 - - - - 10 Mostly clear - 12.1 1018.9 1.8
17/11:00am SSW 10 14 - - - - 10 Mostly clear Showers 11.6 1019.1 1.6
17/10:49am SSW 12 18 - - - - 8 Mostly clear Showers 11.0 1019.2 1.6
17/10:40am S 11 16 - - - - 5 Mostly clear Showers 11.6 1019.1 0.2
17/10:30am SSW 13 17 - - - - 10 Mostly clear - 12.0 1019.1 0.2
17/10:00am S 8 12 - - - - 10 Mostly clear Showers 11.5 1019.1 0.2
17/09:30am SW 14 21 - - - - 10 Mostly clear - 11.4 1018.9 0.0
17/09:00am SW 13 18 - - - - 20 Partly cloudy Distant precip. 11.7 1018.6 1.4
17/08:30am SW 14 18 - - - - 10 Mostly clear - 11.5 1018.3 1.4
17/08:00am S 5 6 - - - - 10 Mostly clear - 11.5 1018.2 1.4
17/07:30am SSE 5 6 - - - - 10 Mostly clear - 9.9 1018.0 1.4
17/07:00am SSE 5 6 - - - - 10 Mostly clear Showers 8.5 1017.9 1.4
17/06:30am SE 6 7 - - - - 10 Mostly clear - 8.5 1017.9 1.4
17/06:00am SSE 7 9 - - - - 20 Mostly cloudy Distant precip. 10.0 1017.6 1.4
17/05:30am SSE 4 7 - - - - 10 Mostly clear - 11.1 1017.6 1.4
17/05:00am ESE 5 6 - - - - 10 Mostly clear Showers 9.3 1017.7 1.4
17/04:30am SSE 6 11 - - - - 10 Mostly clear - 11.0 1017.6 1.4
17/04:00am SE 3 5 - - - - 10 Mostly clear - 8.6 1017.8 1.4
17/03:30am SSE 5 7 - - - - 10 Mostly clear - 8.8 1017.9 1.4
17/03:00am SE 5 6 - - - - 30 Mostly cloudy Recent precip. 9.7 1018.1 1.0
17/02:30am ESE 3 4 - - - - 10 Mostly clear - 7.9 1018.3 1.0
17/02:00am SE 4 5 - - - - 10 Mostly cloudy Showers 7.6 1018.5 1.0
17/01:30am SE 5 5 - - - - 10 Mostly cloudy - 6.7 1018.5 1.0
17/01:00am SE 4 4 - - - - 10 Mostly clear - 7.0 1018.7 1.0
17/12:30am SSE 4 5 - - - - 10 Mostly clear - 9.4 1018.9 1.0
17/12:00am S 5 7 - - - - 30 Mostly clear Distant precip. 8.7 1019.1 1.0
 
Date/Time
CST
Wind Sea
Height
m
Swell Vis
km
Cloud Weather Temp
°C
Press
MSL
hPa
Rain since
9am
mm
Dir  Spd
kts
Gust
kts
Height
m
Period
s
Dir
16/11:30pm S 5 6 - - - - 10 Mostly clear - 8.1 1019.3 1.0
16/11:00pm S 5 7 - - - - 10 Mostly clear - 8.9 1019.4 1.0
16/10:30pm S 9 13 - - - - 10 Mostly clear - 9.8 1019.6 1.0
16/10:00pm S 5 7 - - - - 10 Mostly clear - 9.5 1019.6 1.0
16/09:30pm S 6 8 - - - - 10 Mostly clear - 9.6 1019.5 1.0
16/09:00pm S 9 12 - - - - 25 Mostly clear Fine 10.2 1019.4 1.0
16/08:30pm S 8 14 - - - - 10 Mostly clear - 10.7 1019.5 1.0
16/08:00pm SSE 4 6 - - - - 10 Mostly clear - 9.8 1019.4 1.0
16/07:30pm S 6 8 - - - - 10 Mostly clear - 10.2 1019.3 1.0
16/07:00pm S 7 9 - - - - 10 Mostly clear - 10.1 1019.1 1.0
16/06:30pm S 9 11 - - - - 10 Mostly clear - 10.8 1018.9 1.0
16/06:00pm SSW 12 17 - - - - 8 Mostly cloudy Showers 11.4 1018.7 1.0
16/05:30pm SSW 10 16 - - - - 10 Mostly clear - 11.5 1018.3 1.0
16/05:00pm SSW 13 18 - - - - 10 Mostly clear Showers 12.1 1018.2 1.0
16/04:30pm SSW 15 21 - - - - 10 Mostly clear - 12.0 1017.9 1.0
16/04:00pm SSW 15 20 - - - - 10 Mostly clear - 12.6 1017.8 1.0
16/03:30pm SW 17 22 - - - - 10 Mostly clear - 12.8 1017.6 1.0
16/03:00pm SW 11 16 - - - - 30 Partly cloudy Recent precip. 11.4 1017.6 1.0
16/02:44pm SSW 16 21 - - - - 10 Mostly clear Showers 10.7 1017.7 1.0
16/02:34pm SSW 15 19 - - - - 3 Mostly clear Showers 12.6 1017.4 0.6
16/02:30pm SSW 13 19 - - - - 10 Mostly clear - 12.8 1017.4 0.6
16/02:00pm SSW 12 17 - - - - 10 Mostly clear - 11.1 1017.8 0.6
16/01:46pm S 15 21 - - - - 10 Mostly clear Showers 10.6 1017.9 0.6
16/01:38pm SSW 12 18 - - - - 2 Mostly clear Showers 12.8 1017.8 0.0
16/01:30pm S 14 20 - - - - 10 Mostly clear - 13.0 1017.8 0.0
16/01:00pm SW 19 26 - - - - 10 Mostly clear Showers 13.3 1018.0 0.0
16/12:30pm SW 18 23 - - - - 10 Mostly clear - 13.5 1018.1 0.0
16/12:00pm SSW 17 23 - - - - 25 Mostly cloudy Distant precip. 13.6 1018.4 0.0
16/11:30am SSW 17 22 - - - - 10 Mostly clear - 13.4 1018.9 0.0
16/11:00am SSW 19 29 - - - - 10 Mostly clear - 12.4 1019.2 0.0
16/10:51am SSW 16 26 - - - - 10 Mostly clear - 13.2 1019.2 0.0
16/10:30am SSW 18 27 - - - - 10 Mostly clear - 11.2 1019.4 0.0
16/10:17am SW 16 26 - - - - 10 Mostly clear - 12.0 1019.4 0.0
16/10:00am SSW 15 21 - - - - 10 Mostly clear - 12.1 1019.2 0.0
16/09:30am SSW 13 20 - - - - 10 Mostly clear - 11.7 1019.0 0.0
16/09:00am SSW 13 18 - - - - 20 Mostly cloudy Distant precip. 11.1 1018.6 3.6
16/08:30am S 14 20 - - - - 10 Mostly clear - 10.4 1018.4 3.6
16/08:00am SSW 16 26 - - - - 10 Mostly clear - 9.9 1018.1 3.6
16/07:49am SSW 17 27 - - - - 10 Mostly clear Showers 10.2 1018.1 3.6
16/07:30am SSW 13 17 - - - - 10 Mostly clear - 10.3 1017.8 3.6
16/07:00am SSW 10 16 - - - - 10 Mostly clear Showers 10.1 1017.6 3.6
16/06:30am SSW 14 20 - - - - 10 Mostly clear - 10.2 1017.3 3.6
16/06:21am SSW 17 28 - - - - 10 Mostly clear - 9.7 1017.2 3.6
16/06:18am SSW 15 28 - - - - 10 Mostly clear Showers 9.8 1017.2 3.6
16/06:00am S 9 16 - - - - 20 Mostly cloudy Distant precip. 11.2 1016.9 3.6
16/05:30am S 8 11 - - - - 10 Mostly clear - 10.5 1016.9 3.6
16/05:00am S 8 12 - - - - 10 Mostly clear - 9.8 1016.7 3.6
16/04:30am SSW 14 22 - - - - 10 Mostly clear - 10.2 1016.7 3.6
16/04:00am S 11 16 - - - - 10 Mostly clear - 10.7 1016.7 3.6
16/03:30am SSW 8 10 - - - - 10 Mostly clear - 9.8 1016.7 3.6
16/03:00am S 8 11 - - - - 10 Mostly cloudy Recent precip. 9.2 1017.0 3.6
16/02:30am SSW 10 14 - - - - 10 Mostly clear - 9.0 1016.9 3.6
16/02:00am SSW 12 19 - - - - 10 Mostly clear - 9.8 1016.9 3.6
16/01:30am SSW 11 15 - - - - 10 Mostly clear - 9.7 1016.8 3.6
16/01:00am S 9 12 - - - - 10 Mostly clear - 9.3 1016.9 3.6
16/12:30am SSW 9 11 - - - - 10 Mostly clear - 10.1 1016.9 3.6
16/12:00am SSW 11 15 - - - - 20 Mostly cloudy Recent precip. 9.9 1017.0 3.6
 
Date/Time
CST
Wind Sea
Height
m
Swell Vis
km
Cloud Weather Temp
°C
Press
MSL
hPa
Rain since
9am
mm
Dir  Spd
kts
Gust
kts
Height
m
Period
s
Dir
15/11:30pm SSW 10 15 - - - - 10 Mostly clear - 9.8 1017.2 3.6

Other formats

Comma delimited format used in spreadsheet applications
http://www.bom.gov.au/fwo/IDS60701/IDS60701.94672.axf

JavaScript Object Notation format (JSON) in row-major order
http://www.bom.gov.au/fwo/IDS60701/IDS60701.94672.json

Data quality

Most of these data are generated automatically and are frequently updated. Quality checks on data are not normally performed. It is possible for incorrect values to appear. Refer to information at About Latest Weather Observations and please check the disclaimer before using these data.